<?xml version="1.0" encoding="UTF-8" standalone="no" ?>
<gpx xmlns="http://www.topografix.com/GPX/1/1" xmlns:xsi="http://www.w3.org/2001/XMLSchema-instance" xsi:schemaLocation="http://www.topografix.com/GPX/1/1 http://www.topografix.com/GPX/1/1/gpx.xsd" version="1.1" creator="VisuGPX - https://www.visugpx.com">
  <metadata>
    <name>TransAlpes - Etape 1</name>
    <desc><![CDATA[Première étape de cette traversée des Alpes, de Lugrin à Châtel.]]></desc>
  </metadata>
  <trk>
    <name><![CDATA[Move]]></name>
    <trkseg>
      <trkpt lat="46.40273" lon="6.677">
        <ele>439</ele>
        <time>2017-08-12T05:13:29Z</time>
      </trkpt>
      <trkpt lat="46.40276" lon="6.67701">
        <ele>439</ele>
        <time>2017-08-12T05:13:32Z</time>
      </trkpt>
      <trkpt lat="46.4028" lon="6.67701">
        <ele>439</ele>
        <time>2017-08-12T05:13:36Z</time>
      </trkpt>
      <trkpt lat="46.40284" lon="6.67701">
        <ele>439</ele>
        <time>2017-08-12T05:13:40Z</time>
      </trkpt>
      <trkpt lat="46.40288" lon="6.67703">
        <ele>439</ele>
        <time>2017-08-12T05:13:44Z</time>
      </trkpt>
      <trkpt lat="46.40289" lon="6.67708">
        <ele>439</ele>
        <time>2017-08-12T05:13:47Z</time>
      </trkpt>
      <trkpt lat="46.40289" lon="6.67713">
        <ele>439.18</ele>
        <time>2017-08-12T05:13:50Z</time>
      </trkpt>
      <trkpt lat="46.40288" lon="6.6772">
        <ele>439.49</ele>
        <time>2017-08-12T05:13:53Z</time>
      </trkpt>
      <trkpt lat="46.40288" lon="6.67726">
        <ele>439.8</ele>
        <time>2017-08-12T05:13:56Z</time>
      </trkpt>
      <trkpt lat="46.40288" lon="6.67731">
        <ele>439.9</ele>
        <time>2017-08-12T05:13:59Z</time>
      </trkpt>
      <trkpt lat="46.40288" lon="6.67738">
        <ele>439.6</ele>
        <time>2017-08-12T05:14:02Z</time>
      </trkpt>
      <trkpt lat="46.40288" lon="6.67743">
        <ele>439.29</ele>
        <time>2017-08-12T05:14:05Z</time>
      </trkpt>
      <trkpt lat="46.40289" lon="6.67749">
        <ele>439.01</ele>
        <time>2017-08-12T05:14:08Z</time>
      </trkpt>
      <trkpt lat="46.40289" lon="6.67755">
        <ele>439.31</ele>
        <time>2017-08-12T05:14:11Z</time>
      </trkpt>
      <trkpt lat="46.40289" lon="6.6776">
        <ele>439.61</ele>
        <time>2017-08-12T05:14:14Z</time>
      </trkpt>
      <trkpt lat="46.40289" lon="6.67765">
        <ele>439.91</ele>
        <time>2017-08-12T05:14:17Z</time>
      </trkpt>
      <trkpt lat="46.4029" lon="6.67772">
        <ele>440</ele>
        <time>2017-08-12T05:14:21Z</time>
      </trkpt>
      <trkpt lat="46.4029" lon="6.67779">
        <ele>440</ele>
        <time>2017-08-12T05:14:25Z</time>
      </trkpt>
      <trkpt lat="46.4029" lon="6.67784">
        <ele>440.01</ele>
        <time>2017-08-12T05:14:28Z</time>
      </trkpt>
      <trkpt lat="46.40291" lon="6.6779">
        <ele>440.31</ele>
        <time>2017-08-12T05:14:31Z</time>
      </trkpt>
      <trkpt lat="46.40291" lon="6.67795">
        <ele>440.6</ele>
        <time>2017-08-12T05:14:34Z</time>
      </trkpt>
      <trkpt lat="46.40291" lon="6.67801">
        <ele>440.9</ele>
        <time>2017-08-12T05:14:37Z</time>
      </trkpt>
      <trkpt lat="46.40291" lon="6.67806">
        <ele>441.2</ele>
        <time>2017-08-12T05:14:40Z</time>
      </trkpt>
      <trkpt lat="46.40292" lon="6.67812">
        <ele>441.5</ele>
        <time>2017-08-12T05:14:43Z</time>
      </trkpt>
      <trkpt lat="46.40291" lon="6.67818">
        <ele>441.8</ele>
        <time>2017-08-12T05:14:46Z</time>
      </trkpt>
      <trkpt lat="46.40291" lon="6.67824">
        <ele>442.1</ele>
        <time>2017-08-12T05:14:49Z</time>
      </trkpt>
      <trkpt lat="46.40291" lon="6.6783">
        <ele>442.4</ele>
        <time>2017-08-12T05:14:52Z</time>
      </trkpt>
      <trkpt lat="46.40291" lon="6.67836">
        <ele>442.71</ele>
        <time>2017-08-12T05:14:55Z</time>
      </trkpt>
      <trkpt lat="46.40291" lon="6.67843">
        <ele>443</ele>
        <time>2017-08-12T05:14:58Z</time>
      </trkpt>
      <trkpt lat="46.40291" lon="6.67849">
        <ele>443</ele>
        <time>2017-08-12T05:15:01Z</time>
      </trkpt>
      <trkpt lat="46.4029" lon="6.67855">
        <ele>443</ele>
        <time>2017-08-12T05:15:04Z</time>
      </trkpt>
      <trkpt lat="46.4029" lon="6.67862">
        <ele>443</ele>
        <time>2017-08-12T05:15:07Z</time>
      </trkpt>
      <trkpt lat="46.4029" lon="6.67868">
        <ele>443.21</ele>
        <time>2017-08-12T05:15:10Z</time>
      </trkpt>
      <trkpt lat="46.40289" lon="6.67874">
        <ele>443.51</ele>
        <time>2017-08-12T05:15:13Z</time>
      </trkpt>
      <trkpt lat="46.40289" lon="6.67881">
        <ele>443.81</ele>
        <time>2017-08-12T05:15:16Z</time>
      </trkpt>
      <trkpt lat="46.40289" lon="6.67887">
        <ele>444.11</ele>
        <time>2017-08-12T05:15:19Z</time>
      </trkpt>
      <trkpt lat="46.40288" lon="6.67893">
        <ele>444.41</ele>
        <time>2017-08-12T05:15:22Z</time>
      </trkpt>
      <trkpt lat="46.40288" lon="6.679">
        <ele>444.71</ele>
        <time>2017-08-12T05:15:25Z</time>
      </trkpt>
      <trkpt lat="46.40287" lon="6.67906">
        <ele>445</ele>
        <time>2017-08-12T05:15:28Z</time>
      </trkpt>
      <trkpt lat="46.40287" lon="6.67912">
        <ele>445</ele>
        <time>2017-08-12T05:15:31Z</time>
      </trkpt>
      <trkpt lat="46.40286" lon="6.67919">
        <ele>445</ele>
        <time>2017-08-12T05:15:34Z</time>
      </trkpt>
      <trkpt lat="46.40286" lon="6.67925">
        <ele>445</ele>
        <time>2017-08-12T05:15:37Z</time>
      </trkpt>
      <trkpt lat="46.40285" lon="6.67931">
        <ele>445</ele>
        <time>2017-08-12T05:15:40Z</time>
      </trkpt>
      <trkpt lat="46.40284" lon="6.67937">
        <ele>445</ele>
        <time>2017-08-12T05:15:43Z</time>
      </trkpt>
      <trkpt lat="46.40284" lon="6.67943">
        <ele>445</ele>
        <time>2017-08-12T05:15:46Z</time>
      </trkpt>
      <trkpt lat="46.40284" lon="6.67949">
        <ele>445</ele>
        <time>2017-08-12T05:15:49Z</time>
      </trkpt>
      <trkpt lat="46.40283" lon="6.67955">
        <ele>445</ele>
        <time>2017-08-12T05:15:52Z</time>
      </trkpt>
      <trkpt lat="46.40283" lon="6.67961">
        <ele>445</ele>
        <time>2017-08-12T05:15:55Z</time>
      </trkpt>
      <trkpt lat="46.40282" lon="6.67967">
        <ele>445</ele>
        <time>2017-08-12T05:15:58Z</time>
      </trkpt>
      <trkpt lat="46.40282" lon="6.67973">
        <ele>445</ele>
        <time>2017-08-12T05:16:01Z</time>
      </trkpt>
      <trkpt lat="46.40282" lon="6.67978">
        <ele>445</ele>
        <time>2017-08-12T05:16:04Z</time>
      </trkpt>
      <trkpt lat="46.4028" lon="6.67995">
        <ele>445</ele>
        <time>2017-08-12T05:16:12Z</time>
      </trkpt>
      <trkpt lat="46.40278" lon="6.67999">
        <ele>445</ele>
        <time>2017-08-12T05:16:14Z</time>
      </trkpt>
      <trkpt lat="46.40274" lon="6.68002">
        <ele>445</ele>
        <time>2017-08-12T05:16:16Z</time>
      </trkpt>
      <trkpt lat="46.40268" lon="6.68005">
        <ele>445</ele>
        <time>2017-08-12T05:16:19Z</time>
      </trkpt>
      <trkpt lat="46.40264" lon="6.68005">
        <ele>445</ele>
        <time>2017-08-12T05:16:22Z</time>
      </trkpt>
      <trkpt lat="46.40233" lon="6.68013">
        <ele>454.18</ele>
        <time>2017-08-12T05:17:09.12Z</time>
      </trkpt>
      <trkpt lat="46.402" lon="6.67979">
        <ele>465</ele>
        <time>2017-08-12T05:18:09.31Z</time>
      </trkpt>
      <trkpt lat="46.40173" lon="6.67939">
        <ele>472.12</ele>
        <time>2017-08-12T05:19:08.79Z</time>
      </trkpt>
      <trkpt lat="46.40156" lon="6.6787">
        <ele>477.09</ele>
        <time>2017-08-12T05:20:08.95Z</time>
      </trkpt>
      <trkpt lat="46.40112" lon="6.67878">
        <ele>483.05</ele>
        <time>2017-08-12T05:21:08.43Z</time>
      </trkpt>
      <trkpt lat="46.40059" lon="6.67967">
        <ele>488</ele>
        <time>2017-08-12T05:22:10.19Z</time>
      </trkpt>
      <trkpt lat="46.39914" lon="6.68181">
        <ele>498.17</ele>
        <time>2017-08-12T05:24:09.17Z</time>
      </trkpt>
      <trkpt lat="46.39917" lon="6.68257">
        <ele>504.15</ele>
        <time>2017-08-12T05:25:09.46Z</time>
      </trkpt>
      <trkpt lat="46.39966" lon="6.68363">
        <ele>509.17</ele>
        <time>2017-08-12T05:26:09.75Z</time>
      </trkpt>
      <trkpt lat="46.40005" lon="6.68452">
        <ele>514.1</ele>
        <time>2017-08-12T05:27:09.18Z</time>
      </trkpt>
      <trkpt lat="46.40015" lon="6.68536">
        <ele>519.07</ele>
        <time>2017-08-12T05:28:09.30Z</time>
      </trkpt>
      <trkpt lat="46.4003" lon="6.68621">
        <ele>526.32</ele>
        <time>2017-08-12T05:29:09.49Z</time>
      </trkpt>
      <trkpt lat="46.3996" lon="6.68632">
        <ele>549.1</ele>
        <time>2017-08-12T05:31:08.70Z</time>
      </trkpt>
      <trkpt lat="46.39927" lon="6.68685">
        <ele>559.07</ele>
        <time>2017-08-12T05:32:08.89Z</time>
      </trkpt>
      <trkpt lat="46.39903" lon="6.68666">
        <ele>561.07</ele>
        <time>2017-08-12T05:33:09.09Z</time>
      </trkpt>
      <trkpt lat="46.39875" lon="6.68648">
        <ele>566</ele>
        <time>2017-08-12T05:34:09.37Z</time>
      </trkpt>
      <trkpt lat="46.39822" lon="6.68713">
        <ele>587.09</ele>
        <time>2017-08-12T05:36:08.73Z</time>
      </trkpt>
      <trkpt lat="46.39791" lon="6.68753">
        <ele>601.12</ele>
        <time>2017-08-12T05:37:08.79Z</time>
      </trkpt>
      <trkpt lat="46.39751" lon="6.68818">
        <ele>614.16</ele>
        <time>2017-08-12T05:38:08.98Z</time>
      </trkpt>
      <trkpt lat="46.39709" lon="6.68847">
        <ele>626.17</ele>
        <time>2017-08-12T05:39:09.06Z</time>
      </trkpt>
      <trkpt lat="46.39665" lon="6.68904">
        <ele>639.28</ele>
        <time>2017-08-12T05:40:09.34Z</time>
      </trkpt>
      <trkpt lat="46.39651" lon="6.68849">
        <ele>652.42</ele>
        <time>2017-08-12T05:41:12.11Z</time>
      </trkpt>
      <trkpt lat="46.39626" lon="6.68825">
        <ele>666.36</ele>
        <time>2017-08-12T05:42:09.73Z</time>
      </trkpt>
      <trkpt lat="46.39578" lon="6.68837">
        <ele>693.15</ele>
        <time>2017-08-12T05:44:08.95Z</time>
      </trkpt>
      <trkpt lat="46.39555" lon="6.68856">
        <ele>706.19</ele>
        <time>2017-08-12T05:45:09.03Z</time>
      </trkpt>
      <trkpt lat="46.39493" lon="6.68889">
        <ele>718.36</ele>
        <time>2017-08-12T05:46:09.82Z</time>
      </trkpt>
      <trkpt lat="46.39469" lon="6.68897">
        <ele>733.09</ele>
        <time>2017-08-12T05:47:09.25Z</time>
      </trkpt>
      <trkpt lat="46.39429" lon="6.68915">
        <ele>745.27</ele>
        <time>2017-08-12T05:48:09.34Z</time>
      </trkpt>
      <trkpt lat="46.39347" lon="6.68968">
        <ele>771.25</ele>
        <time>2017-08-12T05:50:09.41Z</time>
      </trkpt>
      <trkpt lat="46.39311" lon="6.68999">
        <ele>783.44</ele>
        <time>2017-08-12T05:51:10.14Z</time>
      </trkpt>
      <trkpt lat="46.39284" lon="6.69046">
        <ele>812.3</ele>
        <time>2017-08-12T05:53:09.42Z</time>
      </trkpt>
      <trkpt lat="46.39207" lon="6.69067">
        <ele>837</ele>
        <time>2017-08-12T05:55:10.27Z</time>
      </trkpt>
      <trkpt lat="46.39153" lon="6.69041">
        <ele>841.21</ele>
        <time>2017-08-12T05:56:10Z</time>
      </trkpt>
      <trkpt lat="46.3908" lon="6.69088">
        <ele>863.34</ele>
        <time>2017-08-12T05:58:09.88Z</time>
      </trkpt>
      <trkpt lat="46.3902" lon="6.69124">
        <ele>876.22</ele>
        <time>2017-08-12T05:59:10.10Z</time>
      </trkpt>
      <trkpt lat="46.38972" lon="6.69158">
        <ele>888.12</ele>
        <time>2017-08-12T06:00:09.22Z</time>
      </trkpt>
      <trkpt lat="46.38932" lon="6.69185">
        <ele>898.38</ele>
        <time>2017-08-12T06:01:09.80Z</time>
      </trkpt>
      <trkpt lat="46.38919" lon="6.6924">
        <ele>902</ele>
        <time>2017-08-12T06:02:08.21Z</time>
      </trkpt>
      <trkpt lat="46.38874" lon="6.69156">
        <ele>906.06</ele>
        <time>2017-08-12T06:04:08.83Z</time>
      </trkpt>
      <trkpt lat="46.38781" lon="6.69312">
        <ele>914.06</ele>
        <time>2017-08-12T06:06:08.92Z</time>
      </trkpt>
      <trkpt lat="46.38748" lon="6.6935">
        <ele>920</ele>
        <time>2017-08-12T06:07:08.95Z</time>
      </trkpt>
      <trkpt lat="46.38701" lon="6.69369">
        <ele>924.02</ele>
        <time>2017-08-12T06:08:08.44Z</time>
      </trkpt>
      <trkpt lat="46.38682" lon="6.69455">
        <ele>929.08</ele>
        <time>2017-08-12T06:09:09Z</time>
      </trkpt>
      <trkpt lat="46.38592" lon="6.69516">
        <ele>935.47</ele>
        <time>2017-08-12T06:10:10.25Z</time>
      </trkpt>
      <trkpt lat="46.38549" lon="6.69557">
        <ele>944.43</ele>
        <time>2017-08-12T06:11:10.07Z</time>
      </trkpt>
      <trkpt lat="46.38475" lon="6.69651">
        <ele>955.54</ele>
        <time>2017-08-12T06:12:10.63Z</time>
      </trkpt>
      <trkpt lat="46.38358" lon="6.69713">
        <ele>975.37</ele>
        <time>2017-08-12T06:14:11.65Z</time>
      </trkpt>
      <trkpt lat="46.3833" lon="6.69714">
        <ele>984.05</ele>
        <time>2017-08-12T06:15:08.68Z</time>
      </trkpt>
      <trkpt lat="46.38226" lon="6.69655">
        <ele>991</ele>
        <time>2017-08-12T06:16:10.46Z</time>
      </trkpt>
      <trkpt lat="46.38193" lon="6.69614">
        <ele>996.13</ele>
        <time>2017-08-12T06:17:09.48Z</time>
      </trkpt>
      <trkpt lat="46.38135" lon="6.69506">
        <ele>1002.32</ele>
        <time>2017-08-12T06:18:11.15Z</time>
      </trkpt>
      <trkpt lat="46.38099" lon="6.69497">
        <ele>1012.16</ele>
        <time>2017-08-12T06:19:09.58Z</time>
      </trkpt>
      <trkpt lat="46.38089" lon="6.69737">
        <ele>1045.15</ele>
        <time>2017-08-12T06:22:13.64Z</time>
      </trkpt>
      <trkpt lat="46.38084" lon="6.69791">
        <ele>1054.05</ele>
        <time>2017-08-12T06:23:08.68Z</time>
      </trkpt>
      <trkpt lat="46.38091" lon="6.6985">
        <ele>1060.11</ele>
        <time>2017-08-12T06:24:08.76Z</time>
      </trkpt>
      <trkpt lat="46.38088" lon="6.699">
        <ele>1074.18</ele>
        <time>2017-08-12T06:25:08.95Z</time>
      </trkpt>
      <trkpt lat="46.38052" lon="6.69948">
        <ele>1088.36</ele>
        <time>2017-08-12T06:26:09.73Z</time>
      </trkpt>
      <trkpt lat="46.38002" lon="6.69972">
        <ele>1100.05</ele>
        <time>2017-08-12T06:27:08.16Z</time>
      </trkpt>
      <trkpt lat="46.3792" lon="6.69994">
        <ele>1106.98</ele>
        <time>2017-08-12T06:28:12.81Z</time>
      </trkpt>
      <trkpt lat="46.37867" lon="6.69994">
        <ele>1117.21</ele>
        <time>2017-08-12T06:29:10.03Z</time>
      </trkpt>
      <trkpt lat="46.37635" lon="6.69916">
        <ele>1139.92</ele>
        <time>2017-08-12T06:32:21Z</time>
      </trkpt>
      <trkpt lat="46.37584" lon="6.69855">
        <ele>1166.22</ele>
        <time>2017-08-12T06:34:09.29Z</time>
      </trkpt>
      <trkpt lat="46.37552" lon="6.69816">
        <ele>1179.31</ele>
        <time>2017-08-12T06:35:09.48Z</time>
      </trkpt>
      <trkpt lat="46.37522" lon="6.69806">
        <ele>1192.34</ele>
        <time>2017-08-12T06:36:09.86Z</time>
      </trkpt>
      <trkpt lat="46.37425" lon="6.69939">
        <ele>1222.02</ele>
        <time>2017-08-12T06:39:08.08Z</time>
      </trkpt>
      <trkpt lat="46.37401" lon="6.69973">
        <ele>1237.58</ele>
        <time>2017-08-12T06:40:13.74Z</time>
      </trkpt>
      <trkpt lat="46.37375" lon="6.70034">
        <ele>1254.41</ele>
        <time>2017-08-12T06:41:25Z</time>
      </trkpt>
      <trkpt lat="46.37394" lon="6.70116">
        <ele>1268.77</ele>
        <time>2017-08-12T06:42:34Z</time>
      </trkpt>
      <trkpt lat="46.37361" lon="6.70126">
        <ele>1289.57</ele>
        <time>2017-08-12T06:44:15.80Z</time>
      </trkpt>
      <trkpt lat="46.37342" lon="6.70182">
        <ele>1305.42</ele>
        <time>2017-08-12T06:45:26Z</time>
      </trkpt>
      <trkpt lat="46.37295" lon="6.70172">
        <ele>1332.41</ele>
        <time>2017-08-12T06:47:09.97Z</time>
      </trkpt>
      <trkpt lat="46.37249" lon="6.70174">
        <ele>1357.37</ele>
        <time>2017-08-12T06:49:09.75Z</time>
      </trkpt>
      <trkpt lat="46.3713" lon="6.70284">
        <ele>1400.28</ele>
        <time>2017-08-12T06:52:14.31Z</time>
      </trkpt>
      <trkpt lat="46.37133" lon="6.70332">
        <ele>1428.31</ele>
        <time>2017-08-12T06:54:09.49Z</time>
      </trkpt>
      <trkpt lat="46.37155" lon="6.70426">
        <ele>1477.01</ele>
        <time>2017-08-12T06:57:38Z</time>
      </trkpt>
      <trkpt lat="46.37114" lon="6.70443">
        <ele>1514.05</ele>
        <time>2017-08-12T07:00:38.70Z</time>
      </trkpt>
      <trkpt lat="46.37103" lon="6.70492">
        <ele>1520</ele>
        <time>2017-08-12T07:02:38.61Z</time>
      </trkpt>
      <trkpt lat="46.37059" lon="6.70542">
        <ele>1520</ele>
        <time>2017-08-12T07:06:15Z</time>
      </trkpt>
      <trkpt lat="46.37048" lon="6.70584">
        <ele>1503.89</ele>
        <time>2017-08-12T07:07:08.48Z</time>
      </trkpt>
      <trkpt lat="46.36969" lon="6.70658">
        <ele>1466</ele>
        <time>2017-08-12T07:09:09.39Z</time>
      </trkpt>
      <trkpt lat="46.36912" lon="6.70737">
        <ele>1425.72</ele>
        <time>2017-08-12T07:11:09.37Z</time>
      </trkpt>
      <trkpt lat="46.36914" lon="6.70699">
        <ele>1409.84</ele>
        <time>2017-08-12T07:15:39.54Z</time>
      </trkpt>
      <trkpt lat="46.36915" lon="6.70655">
        <ele>1391</ele>
        <time>2017-08-12T07:17:39.46Z</time>
      </trkpt>
      <trkpt lat="46.36873" lon="6.70602">
        <ele>1360.23</ele>
        <time>2017-08-12T07:19:39.83Z</time>
      </trkpt>
      <trkpt lat="46.3686" lon="6.70573">
        <ele>1330.64</ele>
        <time>2017-08-12T07:20:38.86Z</time>
      </trkpt>
      <trkpt lat="46.36789" lon="6.70486">
        <ele>1303.56</ele>
        <time>2017-08-12T07:21:40.12Z</time>
      </trkpt>
      <trkpt lat="46.36763" lon="6.70575">
        <ele>1323.51</ele>
        <time>2017-08-12T07:23:40.70Z</time>
      </trkpt>
      <trkpt lat="46.36678" lon="6.70684">
        <ele>1349.35</ele>
        <time>2017-08-12T07:25:39.68Z</time>
      </trkpt>
      <trkpt lat="46.36661" lon="6.70733">
        <ele>1362.1</ele>
        <time>2017-08-12T07:26:38.81Z</time>
      </trkpt>
      <trkpt lat="46.36707" lon="6.70812">
        <ele>1386.31</ele>
        <time>2017-08-12T07:28:39.45Z</time>
      </trkpt>
      <trkpt lat="46.36722" lon="6.70843">
        <ele>1401.57</ele>
        <time>2017-08-12T07:29:40.77Z</time>
      </trkpt>
      <trkpt lat="46.36733" lon="6.70895">
        <ele>1407.09</ele>
        <time>2017-08-12T07:30:38.89Z</time>
      </trkpt>
      <trkpt lat="46.36793" lon="6.71028">
        <ele>1435.4</ele>
        <time>2017-08-12T07:32:39.96Z</time>
      </trkpt>
      <trkpt lat="46.3679" lon="6.71076">
        <ele>1450.08</ele>
        <time>2017-08-12T07:33:38.99Z</time>
      </trkpt>
      <trkpt lat="46.36843" lon="6.71261">
        <ele>1473.51</ele>
        <time>2017-08-12T07:35:40.46Z</time>
      </trkpt>
      <trkpt lat="46.36848" lon="6.71332">
        <ele>1483.31</ele>
        <time>2017-08-12T07:36:39.48Z</time>
      </trkpt>
      <trkpt lat="46.36872" lon="6.71438">
        <ele>1494</ele>
        <time>2017-08-12T07:38:42.72Z</time>
      </trkpt>
      <trkpt lat="46.3688" lon="6.71627">
        <ele>1495.45</ele>
        <time>2017-08-12T07:40:42.40Z</time>
      </trkpt>
      <trkpt lat="46.36916" lon="6.71712">
        <ele>1508.02</ele>
        <time>2017-08-12T07:42:38.69Z</time>
      </trkpt>
      <trkpt lat="46.36996" lon="6.7187">
        <ele>1509</ele>
        <time>2017-08-12T07:43:39.25Z</time>
      </trkpt>
      <trkpt lat="46.36953" lon="6.71955">
        <ele>1502.94</ele>
        <time>2017-08-12T07:45:38.84Z</time>
      </trkpt>
      <trkpt lat="46.36969" lon="6.72067">
        <ele>1493.67</ele>
        <time>2017-08-12T07:46:41.26Z</time>
      </trkpt>
      <trkpt lat="46.37022" lon="6.72157">
        <ele>1484.35</ele>
        <time>2017-08-12T07:47:40.08Z</time>
      </trkpt>
      <trkpt lat="46.37094" lon="6.72409">
        <ele>1468.62</ele>
        <time>2017-08-12T07:49:51Z</time>
      </trkpt>
      <trkpt lat="46.3714" lon="6.72624">
        <ele>1478.39</ele>
        <time>2017-08-12T07:51:41.88Z</time>
      </trkpt>
      <trkpt lat="46.37166" lon="6.72859">
        <ele>1490</ele>
        <time>2017-08-12T07:53:40.16Z</time>
      </trkpt>
      <trkpt lat="46.37163" lon="6.72978">
        <ele>1493.17</ele>
        <time>2017-08-12T07:54:39.59Z</time>
      </trkpt>
      <trkpt lat="46.37158" lon="6.73023">
        <ele>1500</ele>
        <time>2017-08-12T07:55:40.04Z</time>
      </trkpt>
      <trkpt lat="46.37155" lon="6.73065">
        <ele>1500.11</ele>
        <time>2017-08-12T07:56:39.16Z</time>
      </trkpt>
      <trkpt lat="46.36996" lon="6.73084">
        <ele>1538.42</ele>
        <time>2017-08-12T07:59:40.01Z</time>
      </trkpt>
      <trkpt lat="46.37002" lon="6.73139">
        <ele>1552.34</ele>
        <time>2017-08-12T08:00:42.39Z</time>
      </trkpt>
      <trkpt lat="46.36964" lon="6.73196">
        <ele>1579.37</ele>
        <time>2017-08-12T08:02:39.79Z</time>
      </trkpt>
      <trkpt lat="46.36947" lon="6.73196">
        <ele>1607.07</ele>
        <time>2017-08-12T08:04:38.94Z</time>
      </trkpt>
      <trkpt lat="46.36776" lon="6.73196">
        <ele>1633.91</ele>
        <time>2017-08-12T08:06:40.97Z</time>
      </trkpt>
      <trkpt lat="46.36769" lon="6.73178">
        <ele>1664.28</ele>
        <time>2017-08-12T08:08:39.45Z</time>
      </trkpt>
      <trkpt lat="46.36642" lon="6.73046">
        <ele>1674</ele>
        <time>2017-08-12T08:10:40.78Z</time>
      </trkpt>
      <trkpt lat="46.36608" lon="6.73031">
        <ele>1687.28</ele>
        <time>2017-08-12T08:12:39.11Z</time>
      </trkpt>
      <trkpt lat="46.36462" lon="6.73119">
        <ele>1718.33</ele>
        <time>2017-08-12T08:14:39.56Z</time>
      </trkpt>
      <trkpt lat="46.36441" lon="6.73168">
        <ele>1733.71</ele>
        <time>2017-08-12T08:15:41.45Z</time>
      </trkpt>
      <trkpt lat="46.3642" lon="6.73356">
        <ele>1753</ele>
        <time>2017-08-12T08:17:38.88Z</time>
      </trkpt>
      <trkpt lat="46.36422" lon="6.73428">
        <ele>1752</ele>
        <time>2017-08-12T08:18:38.30Z</time>
      </trkpt>
      <trkpt lat="46.36414" lon="6.73658">
        <ele>1757.19</ele>
        <time>2017-08-12T08:20:39.11Z</time>
      </trkpt>
      <trkpt lat="46.36416" lon="6.73751">
        <ele>1763</ele>
        <time>2017-08-12T08:21:39.11Z</time>
      </trkpt>
      <trkpt lat="46.36395" lon="6.73808">
        <ele>1766.11</ele>
        <time>2017-08-12T08:22:39.02Z</time>
      </trkpt>
      <trkpt lat="46.3636" lon="6.73828">
        <ele>1765</ele>
        <time>2017-08-12T08:24:39.57Z</time>
      </trkpt>
      <trkpt lat="46.36341" lon="6.7379">
        <ele>1760.06</ele>
        <time>2017-08-12T08:25:38.50Z</time>
      </trkpt>
      <trkpt lat="46.36292" lon="6.73719">
        <ele>1755</ele>
        <time>2017-08-12T08:26:38.63Z</time>
      </trkpt>
      <trkpt lat="46.36256" lon="6.73693">
        <ele>1735.94</ele>
        <time>2017-08-12T08:27:38.84Z</time>
      </trkpt>
      <trkpt lat="46.36196" lon="6.73613">
        <ele>1721.62</ele>
        <time>2017-08-12T08:28:40.75Z</time>
      </trkpt>
      <trkpt lat="46.36068" lon="6.73515">
        <ele>1716.3</ele>
        <time>2017-08-12T08:29:39.47Z</time>
      </trkpt>
      <trkpt lat="46.36011" lon="6.73397">
        <ele>1738.32</ele>
        <time>2017-08-12T08:31:39.51Z</time>
      </trkpt>
      <trkpt lat="46.35938" lon="6.7338">
        <ele>1779.03</ele>
        <time>2017-08-12T08:34:38.40Z</time>
      </trkpt>
      <trkpt lat="46.35917" lon="6.73348">
        <ele>1791.4</ele>
        <time>2017-08-12T08:35:39.93Z</time>
      </trkpt>
      <trkpt lat="46.35904" lon="6.73305">
        <ele>1803</ele>
        <time>2017-08-12T08:36:38.66Z</time>
      </trkpt>
      <trkpt lat="46.35878" lon="6.73265">
        <ele>1808.07</ele>
        <time>2017-08-12T08:37:38.88Z</time>
      </trkpt>
      <trkpt lat="46.35843" lon="6.73253">
        <ele>1809.18</ele>
        <time>2017-08-12T08:38:39.69Z</time>
      </trkpt>
      <trkpt lat="46.35709" lon="6.73169">
        <ele>1818</ele>
        <time>2017-08-12T08:40:42.73Z</time>
      </trkpt>
      <trkpt lat="46.35582" lon="6.73012">
        <ele>1823.05</ele>
        <time>2017-08-12T08:42:39.18Z</time>
      </trkpt>
      <trkpt lat="46.35524" lon="6.72928">
        <ele>1823</ele>
        <time>2017-08-12T08:43:39.35Z</time>
      </trkpt>
      <trkpt lat="46.35465" lon="6.72828">
        <ele>1825</ele>
        <time>2017-08-12T08:44:39.63Z</time>
      </trkpt>
      <trkpt lat="46.3543" lon="6.7274">
        <ele>1828</ele>
        <time>2017-08-12T08:45:39.61Z</time>
      </trkpt>
      <trkpt lat="46.35415" lon="6.7265">
        <ele>1832</ele>
        <time>2017-08-12T08:46:39.83Z</time>
      </trkpt>
      <trkpt lat="46.35396" lon="6.72618">
        <ele>1835.12</ele>
        <time>2017-08-12T08:48:39.16Z</time>
      </trkpt>
      <trkpt lat="46.35344" lon="6.72566">
        <ele>1840</ele>
        <time>2017-08-12T08:50:39.38Z</time>
      </trkpt>
      <trkpt lat="46.35305" lon="6.72504">
        <ele>1855.19</ele>
        <time>2017-08-12T08:53:39.79Z</time>
      </trkpt>
      <trkpt lat="46.3522" lon="6.72433">
        <ele>1875.17</ele>
        <time>2017-08-12T08:56:39.62Z</time>
      </trkpt>
      <trkpt lat="46.35182" lon="6.72387">
        <ele>1898.2</ele>
        <time>2017-08-12T08:58:40.15Z</time>
      </trkpt>
      <trkpt lat="46.35156" lon="6.72376">
        <ele>1914.79</ele>
        <time>2017-08-12T09:00:39.99Z</time>
      </trkpt>
      <trkpt lat="46.35134" lon="6.72451">
        <ele>1911.09</ele>
        <time>2017-08-12T09:01:39.02Z</time>
      </trkpt>
      <trkpt lat="46.35143" lon="6.72509">
        <ele>1927.07</ele>
        <time>2017-08-12T09:02:38.54Z</time>
      </trkpt>
      <trkpt lat="46.35163" lon="6.72621">
        <ele>1956.04</ele>
        <time>2017-08-12T09:04:38.35Z</time>
      </trkpt>
      <trkpt lat="46.35187" lon="6.72654">
        <ele>1974.96</ele>
        <time>2017-08-12T09:05:41.20Z</time>
      </trkpt>
      <trkpt lat="46.35216" lon="6.72688">
        <ele>2002.23</ele>
        <time>2017-08-12T09:07:39.13Z</time>
      </trkpt>
      <trkpt lat="46.35234" lon="6.72722">
        <ele>2026.57</ele>
        <time>2017-08-12T09:09:39.83Z</time>
      </trkpt>
      <trkpt lat="46.35244" lon="6.72769">
        <ele>2053</ele>
        <time>2017-08-12T09:11:39.07Z</time>
      </trkpt>
      <trkpt lat="46.35264" lon="6.72859">
        <ele>2101.99</ele>
        <time>2017-08-12T09:21:39.62Z</time>
      </trkpt>
      <trkpt lat="46.35274" lon="6.72888">
        <ele>2111.23</ele>
        <time>2017-08-12T09:22:38.07Z</time>
      </trkpt>
      <trkpt lat="46.35288" lon="6.7293">
        <ele>2126.33</ele>
        <time>2017-08-12T09:23:38.57Z</time>
      </trkpt>
      <trkpt lat="46.35277" lon="6.72984">
        <ele>2146.69</ele>
        <time>2017-08-12T09:25:40.40Z</time>
      </trkpt>
      <trkpt lat="46.35266" lon="6.7301">
        <ele>2181.67</ele>
        <time>2017-08-12T09:29:40.27Z</time>
      </trkpt>
      <trkpt lat="46.35292" lon="6.73087">
        <ele>2200.33</ele>
        <time>2017-08-12T09:31:38.74Z</time>
      </trkpt>
      <trkpt lat="46.35297" lon="6.73128">
        <ele>2210</ele>
        <time>2017-08-12T09:32:39.27Z</time>
      </trkpt>
      <trkpt lat="46.35296" lon="6.73144">
        <ele>2211</ele>
        <time>2017-08-12T09:38:38.53Z</time>
      </trkpt>
      <trkpt lat="46.35308" lon="6.732">
        <ele>2192.34</ele>
        <time>2017-08-12T09:40:39.38Z</time>
      </trkpt>
      <trkpt lat="46.35307" lon="6.73246">
        <ele>2182.24</ele>
        <time>2017-08-12T09:42:38.50Z</time>
      </trkpt>
      <trkpt lat="46.35303" lon="6.73281">
        <ele>2160.35</ele>
        <time>2017-08-12T09:44:37.45Z</time>
      </trkpt>
      <trkpt lat="46.35277" lon="6.73315">
        <ele>2150.39</ele>
        <time>2017-08-12T09:45:38.94Z</time>
      </trkpt>
      <trkpt lat="46.35261" lon="6.73351">
        <ele>2138.39</ele>
        <time>2017-08-12T09:46:38.98Z</time>
      </trkpt>
      <trkpt lat="46.35234" lon="6.73397">
        <ele>2128.21</ele>
        <time>2017-08-12T09:47:38.98Z</time>
      </trkpt>
      <trkpt lat="46.35227" lon="6.73444">
        <ele>2103.16</ele>
        <time>2017-08-12T09:49:39.29Z</time>
      </trkpt>
      <trkpt lat="46.35215" lon="6.73486">
        <ele>2086.15</ele>
        <time>2017-08-12T09:50:39.40Z</time>
      </trkpt>
      <trkpt lat="46.35193" lon="6.73581">
        <ele>2041.12</ele>
        <time>2017-08-12T09:54:39.82Z</time>
      </trkpt>
      <trkpt lat="46.35186" lon="6.73613">
        <ele>2011.82</ele>
        <time>2017-08-12T09:56:38.86Z</time>
      </trkpt>
      <trkpt lat="46.35171" lon="6.73663">
        <ele>1992.21</ele>
        <time>2017-08-12T09:59:38.98Z</time>
      </trkpt>
      <trkpt lat="46.35131" lon="6.73718">
        <ele>1987.62</ele>
        <time>2017-08-12T10:00:44.88Z</time>
      </trkpt>
      <trkpt lat="46.35109" lon="6.73775">
        <ele>1965.85</ele>
        <time>2017-08-12T10:02:39.43Z</time>
      </trkpt>
      <trkpt lat="46.35074" lon="6.73789">
        <ele>1925.13</ele>
        <time>2017-08-12T10:05:43.81Z</time>
      </trkpt>
      <trkpt lat="46.35027" lon="6.73811">
        <ele>1896.04</ele>
        <time>2017-08-12T10:07:40.85Z</time>
      </trkpt>
      <trkpt lat="46.35006" lon="6.73757">
        <ele>1867.24</ele>
        <time>2017-08-12T10:08:38.85Z</time>
      </trkpt>
      <trkpt lat="46.34979" lon="6.73722">
        <ele>1839.06</ele>
        <time>2017-08-12T10:09:38.27Z</time>
      </trkpt>
      <trkpt lat="46.34948" lon="6.73702">
        <ele>1812.06</ele>
        <time>2017-08-12T10:10:38.80Z</time>
      </trkpt>
      <trkpt lat="46.3491" lon="6.73597">
        <ele>1779.07</ele>
        <time>2017-08-12T10:11:38.92Z</time>
      </trkpt>
      <trkpt lat="46.34861" lon="6.73574">
        <ele>1755.91</ele>
        <time>2017-08-12T10:12:38.66Z</time>
      </trkpt>
      <trkpt lat="46.34822" lon="6.73561">
        <ele>1748</ele>
        <time>2017-08-12T10:13:38.77Z</time>
      </trkpt>
      <trkpt lat="46.34792" lon="6.73554">
        <ele>1758.77</ele>
        <time>2017-08-12T10:14:38.70Z</time>
      </trkpt>
      <trkpt lat="46.34768" lon="6.7353">
        <ele>1765.34</ele>
        <time>2017-08-12T10:16:37.58Z</time>
      </trkpt>
      <trkpt lat="46.3466" lon="6.73528">
        <ele>1774.67</ele>
        <time>2017-08-12T10:18:39.41Z</time>
      </trkpt>
      <trkpt lat="46.3464" lon="6.73607">
        <ele>1789.42</ele>
        <time>2017-08-12T10:19:59Z</time>
      </trkpt>
      <trkpt lat="46.34655" lon="6.73709">
        <ele>1811</ele>
        <time>2017-08-12T10:21:40.59Z</time>
      </trkpt>
      <trkpt lat="46.34645" lon="6.73902">
        <ele>1836.47</ele>
        <time>2017-08-12T10:23:39.15Z</time>
      </trkpt>
      <trkpt lat="46.34625" lon="6.74067">
        <ele>1880.98</ele>
        <time>2017-08-12T10:26:41.13Z</time>
      </trkpt>
      <trkpt lat="46.34588" lon="6.74214">
        <ele>1906.02</ele>
        <time>2017-08-12T10:28:41.28Z</time>
      </trkpt>
      <trkpt lat="46.34561" lon="6.7431">
        <ele>1923</ele>
        <time>2017-08-12T10:30:41.33Z</time>
      </trkpt>
      <trkpt lat="46.34534" lon="6.74305">
        <ele>1924</ele>
        <time>2017-08-12T10:33:51Z</time>
      </trkpt>
      <trkpt lat="46.34659" lon="6.74327">
        <ele>1900</ele>
        <time>2017-08-12T10:36:51Z</time>
      </trkpt>
      <trkpt lat="46.3473" lon="6.74622">
        <ele>1896.8</ele>
        <time>2017-08-12T10:39:38.93Z</time>
      </trkpt>
      <trkpt lat="46.34784" lon="6.74814">
        <ele>1913.53</ele>
        <time>2017-08-12T10:41:38.57Z</time>
      </trkpt>
      <trkpt lat="46.34757" lon="6.74856">
        <ele>1917.69</ele>
        <time>2017-08-12T10:42:37.91Z</time>
      </trkpt>
      <trkpt lat="46.34747" lon="6.74896">
        <ele>1922</ele>
        <time>2017-08-12T10:43:37.98Z</time>
      </trkpt>
      <trkpt lat="46.34723" lon="6.74972">
        <ele>1922</ele>
        <time>2017-08-12T10:43:38.75Z</time>
      </trkpt>
      <trkpt lat="46.34712" lon="6.75077">
        <ele>1926.51</ele>
        <time>2017-08-12T10:44:38.49Z</time>
      </trkpt>
      <trkpt lat="46.34714" lon="6.75124">
        <ele>1928.25</ele>
        <time>2017-08-12T10:45:38.54Z</time>
      </trkpt>
      <trkpt lat="46.3473" lon="6.75199">
        <ele>1928.18</ele>
        <time>2017-08-12T10:45:39.19Z</time>
      </trkpt>
      <trkpt lat="46.34761" lon="6.75253">
        <ele>1916.32</ele>
        <time>2017-08-12T10:46:38.82Z</time>
      </trkpt>
      <trkpt lat="46.34839" lon="6.75466">
        <ele>1875.55</ele>
        <time>2017-08-12T10:48:39.07Z</time>
      </trkpt>
      <trkpt lat="46.34855" lon="6.75592">
        <ele>1859.2</ele>
        <time>2017-08-12T10:49:39.08Z</time>
      </trkpt>
      <trkpt lat="46.34805" lon="6.7578">
        <ele>1847.72</ele>
        <time>2017-08-12T10:50:39.11Z</time>
      </trkpt>
      <trkpt lat="46.34752" lon="6.75947">
        <ele>1842</ele>
        <time>2017-08-12T10:51:39.83Z</time>
      </trkpt>
      <trkpt lat="46.34677" lon="6.7598">
        <ele>1863.27</ele>
        <time>2017-08-12T10:54:38.49Z</time>
      </trkpt>
      <trkpt lat="46.34654" lon="6.75969">
        <ele>1875.85</ele>
        <time>2017-08-12T10:55:39.38Z</time>
      </trkpt>
      <trkpt lat="46.3462" lon="6.75972">
        <ele>1890.42</ele>
        <time>2017-08-12T10:56:38.99Z</time>
      </trkpt>
      <trkpt lat="46.34587" lon="6.75997">
        <ele>1903</ele>
        <time>2017-08-12T10:57:38.52Z</time>
      </trkpt>
      <trkpt lat="46.34517" lon="6.76039">
        <ele>1890.93</ele>
        <time>2017-08-12T10:59:41.48Z</time>
      </trkpt>
      <trkpt lat="46.345" lon="6.76038">
        <ele>1854.1</ele>
        <time>2017-08-12T11:00:38.42Z</time>
      </trkpt>
      <trkpt lat="46.3446" lon="6.7603">
        <ele>1810.08</ele>
        <time>2017-08-12T11:01:37.94Z</time>
      </trkpt>
      <trkpt lat="46.34428" lon="6.76036">
        <ele>1809.67</ele>
        <time>2017-08-12T11:01:38.53Z</time>
      </trkpt>
      <trkpt lat="46.34287" lon="6.76035">
        <ele>1772.6</ele>
        <time>2017-08-12T11:02:38.25Z</time>
      </trkpt>
      <trkpt lat="46.34072" lon="6.76015">
        <ele>1710.1</ele>
        <time>2017-08-12T11:04:38.29Z</time>
      </trkpt>
      <trkpt lat="46.33972" lon="6.7605">
        <ele>1667.36</ele>
        <time>2017-08-12T11:05:39.41Z</time>
      </trkpt>
      <trkpt lat="46.33895" lon="6.7608">
        <ele>1642.37</ele>
        <time>2017-08-12T11:06:40.02Z</time>
      </trkpt>
      <trkpt lat="46.33751" lon="6.76191">
        <ele>1598.9</ele>
        <time>2017-08-12T11:07:38.54Z</time>
      </trkpt>
      <trkpt lat="46.33658" lon="6.76313">
        <ele>1558.07</ele>
        <time>2017-08-12T11:08:38.06Z</time>
      </trkpt>
      <trkpt lat="46.33547" lon="6.76478">
        <ele>1532.45</ele>
        <time>2017-08-12T11:09:38.69Z</time>
      </trkpt>
      <trkpt lat="46.3348" lon="6.76559">
        <ele>1533</ele>
        <time>2017-08-12T11:10:38.41Z</time>
      </trkpt>
      <trkpt lat="46.33262" lon="6.76622">
        <ele>1515.62</ele>
        <time>2017-08-12T11:12:38.93Z</time>
      </trkpt>
      <trkpt lat="46.33104" lon="6.76569">
        <ele>1488</ele>
        <time>2017-08-12T11:13:42.86Z</time>
      </trkpt>
      <trkpt lat="46.33084" lon="6.76569">
        <ele>1486</ele>
        <time>2017-08-12T11:14:38.69Z</time>
      </trkpt>
      <trkpt lat="46.33024" lon="6.76449">
        <ele>1484.94</ele>
        <time>2017-08-12T12:46:21Z</time>
      </trkpt>
      <trkpt lat="46.33024" lon="6.76449">
        <ele>1484.73</ele>
        <time>2017-08-12T12:46:23Z</time>
      </trkpt>
      <trkpt lat="46.33022" lon="6.76454">
        <ele>1483.81</ele>
        <time>2017-08-12T12:46:32Z</time>
      </trkpt>
      <trkpt lat="46.33023" lon="6.7646">
        <ele>1483.5</ele>
        <time>2017-08-12T12:46:35Z</time>
      </trkpt>
      <trkpt lat="46.33023" lon="6.76466">
        <ele>1483.19</ele>
        <time>2017-08-12T12:46:38Z</time>
      </trkpt>
      <trkpt lat="46.33024" lon="6.76473">
        <ele>1483</ele>
        <time>2017-08-12T12:46:41Z</time>
      </trkpt>
      <trkpt lat="46.33024" lon="6.76479">
        <ele>1483</ele>
        <time>2017-08-12T12:46:44Z</time>
      </trkpt>
      <trkpt lat="46.33025" lon="6.76487">
        <ele>1483</ele>
        <time>2017-08-12T12:46:47Z</time>
      </trkpt>
      <trkpt lat="46.33027" lon="6.76492">
        <ele>1483</ele>
        <time>2017-08-12T12:46:50Z</time>
      </trkpt>
      <trkpt lat="46.33029" lon="6.76498">
        <ele>1483</ele>
        <time>2017-08-12T12:46:53Z</time>
      </trkpt>
      <trkpt lat="46.3303" lon="6.76503">
        <ele>1483</ele>
        <time>2017-08-12T12:46:56Z</time>
      </trkpt>
      <trkpt lat="46.33032" lon="6.76509">
        <ele>1483</ele>
        <time>2017-08-12T12:46:59Z</time>
      </trkpt>
      <trkpt lat="46.33033" lon="6.76514">
        <ele>1483</ele>
        <time>2017-08-12T12:47:02Z</time>
      </trkpt>
      <trkpt lat="46.33035" lon="6.76519">
        <ele>1483</ele>
        <time>2017-08-12T12:47:05Z</time>
      </trkpt>
      <trkpt lat="46.33038" lon="6.76525">
        <ele>1483</ele>
        <time>2017-08-12T12:47:08Z</time>
      </trkpt>
      <trkpt lat="46.3304" lon="6.76529">
        <ele>1483</ele>
        <time>2017-08-12T12:47:11Z</time>
      </trkpt>
      <trkpt lat="46.33043" lon="6.76534">
        <ele>1483</ele>
        <time>2017-08-12T12:47:14Z</time>
      </trkpt>
      <trkpt lat="46.33045" lon="6.76539">
        <ele>1483</ele>
        <time>2017-08-12T12:47:18Z</time>
      </trkpt>
      <trkpt lat="46.33048" lon="6.76543">
        <ele>1483</ele>
        <time>2017-08-12T12:47:22Z</time>
      </trkpt>
      <trkpt lat="46.33051" lon="6.76547">
        <ele>1483</ele>
        <time>2017-08-12T12:47:25Z</time>
      </trkpt>
      <trkpt lat="46.33054" lon="6.76551">
        <ele>1483</ele>
        <time>2017-08-12T12:47:28Z</time>
      </trkpt>
      <trkpt lat="46.33055" lon="6.76555">
        <ele>1483.15</ele>
        <time>2017-08-12T12:47:31Z</time>
      </trkpt>
      <trkpt lat="46.33056" lon="6.76561">
        <ele>1483.44</ele>
        <time>2017-08-12T12:47:34Z</time>
      </trkpt>
      <trkpt lat="46.33057" lon="6.76567">
        <ele>1483.73</ele>
        <time>2017-08-12T12:47:37Z</time>
      </trkpt>
      <trkpt lat="46.33059" lon="6.76573">
        <ele>1484</ele>
        <time>2017-08-12T12:47:40Z</time>
      </trkpt>
      <trkpt lat="46.33061" lon="6.76576">
        <ele>1484</ele>
        <time>2017-08-12T12:47:43Z</time>
      </trkpt>
      <trkpt lat="46.33064" lon="6.76579">
        <ele>1484</ele>
        <time>2017-08-12T12:47:46Z</time>
      </trkpt>
      <trkpt lat="46.33066" lon="6.76584">
        <ele>1484</ele>
        <time>2017-08-12T12:47:49Z</time>
      </trkpt>
      <trkpt lat="46.33068" lon="6.7659">
        <ele>1484</ele>
        <time>2017-08-12T12:47:52Z</time>
      </trkpt>
      <trkpt lat="46.33069" lon="6.76597">
        <ele>1484</ele>
        <time>2017-08-12T12:47:56Z</time>
      </trkpt>
      <trkpt lat="46.33069" lon="6.76602">
        <ele>1484</ele>
        <time>2017-08-12T12:47:59Z</time>
      </trkpt>
      <trkpt lat="46.33069" lon="6.76607">
        <ele>1484.5</ele>
        <time>2017-08-12T12:48:02Z</time>
      </trkpt>
      <trkpt lat="46.3307" lon="6.76612">
        <ele>1485.09</ele>
        <time>2017-08-12T12:48:05Z</time>
      </trkpt>
      <trkpt lat="46.33071" lon="6.76617">
        <ele>1485.69</ele>
        <time>2017-08-12T12:48:08Z</time>
      </trkpt>
      <trkpt lat="46.33071" lon="6.76623">
        <ele>1486</ele>
        <time>2017-08-12T12:48:11Z</time>
      </trkpt>
      <trkpt lat="46.33073" lon="6.76629">
        <ele>1486</ele>
        <time>2017-08-12T12:48:15Z</time>
      </trkpt>
      <trkpt lat="46.33074" lon="6.76634">
        <ele>1486</ele>
        <time>2017-08-12T12:48:18Z</time>
      </trkpt>
      <trkpt lat="46.33077" lon="6.7664">
        <ele>1486.25</ele>
        <time>2017-08-12T12:48:22Z</time>
      </trkpt>
      <trkpt lat="46.3308" lon="6.76645">
        <ele>1486.65</ele>
        <time>2017-08-12T12:48:26Z</time>
      </trkpt>
      <trkpt lat="46.33083" lon="6.76648">
        <ele>1486.94</ele>
        <time>2017-08-12T12:48:29Z</time>
      </trkpt>
      <trkpt lat="46.33086" lon="6.76652">
        <ele>1487.34</ele>
        <time>2017-08-12T12:48:33Z</time>
      </trkpt>
      <trkpt lat="46.3309" lon="6.76654">
        <ele>1487.65</ele>
        <time>2017-08-12T12:48:36Z</time>
      </trkpt>
      <trkpt lat="46.33094" lon="6.76655">
        <ele>1487.95</ele>
        <time>2017-08-12T12:48:39Z</time>
      </trkpt>
      <trkpt lat="46.33099" lon="6.76656">
        <ele>1488</ele>
        <time>2017-08-12T12:48:43Z</time>
      </trkpt>
      <trkpt lat="46.33102" lon="6.76659">
        <ele>1488.45</ele>
        <time>2017-08-12T12:48:54Z</time>
      </trkpt>
      <trkpt lat="46.33105" lon="6.76664">
        <ele>1488.75</ele>
        <time>2017-08-12T12:48:57Z</time>
      </trkpt>
      <trkpt lat="46.33107" lon="6.76668">
        <ele>1488.96</ele>
        <time>2017-08-12T12:49:00Z</time>
      </trkpt>
      <trkpt lat="46.33111" lon="6.76672">
        <ele>1488.65</ele>
        <time>2017-08-12T12:49:03Z</time>
      </trkpt>
      <trkpt lat="46.33112" lon="6.76678">
        <ele>1488.35</ele>
        <time>2017-08-12T12:49:06Z</time>
      </trkpt>
      <trkpt lat="46.33074" lon="6.76741">
        <ele>1492.98</ele>
        <time>2017-08-12T12:50:09.20Z</time>
      </trkpt>
      <trkpt lat="46.32984" lon="6.7689">
        <ele>1529.97</ele>
        <time>2017-08-12T12:53:09.13Z</time>
      </trkpt>
      <trkpt lat="46.32976" lon="6.76939">
        <ele>1541</ele>
        <time>2017-08-12T12:54:09.15Z</time>
      </trkpt>
      <trkpt lat="46.32925" lon="6.77053">
        <ele>1570.96</ele>
        <time>2017-08-12T12:56:09.98Z</time>
      </trkpt>
      <trkpt lat="46.32888" lon="6.77107">
        <ele>1597.04</ele>
        <time>2017-08-12T12:58:09.57Z</time>
      </trkpt>
      <trkpt lat="46.32875" lon="6.77138">
        <ele>1611.82</ele>
        <time>2017-08-12T12:59:08.59Z</time>
      </trkpt>
      <trkpt lat="46.32792" lon="6.7721">
        <ele>1640.03</ele>
        <time>2017-08-12T13:01:09.88Z</time>
      </trkpt>
      <trkpt lat="46.32755" lon="6.77284">
        <ele>1667.06</ele>
        <time>2017-08-12T13:03:10.56Z</time>
      </trkpt>
      <trkpt lat="46.32768" lon="6.77373">
        <ele>1694.15</ele>
        <time>2017-08-12T13:05:10.37Z</time>
      </trkpt>
      <trkpt lat="46.3277" lon="6.77447">
        <ele>1711</ele>
        <time>2017-08-12T13:07:07.85Z</time>
      </trkpt>
      <trkpt lat="46.3273" lon="6.77462">
        <ele>1740.03</ele>
        <time>2017-08-12T13:12:10.05Z</time>
      </trkpt>
      <trkpt lat="46.32685" lon="6.77452">
        <ele>1761.85</ele>
        <time>2017-08-12T13:14:08.67Z</time>
      </trkpt>
      <trkpt lat="46.32629" lon="6.77423">
        <ele>1774.48</ele>
        <time>2017-08-12T13:15:14.33Z</time>
      </trkpt>
      <trkpt lat="46.32546" lon="6.77455">
        <ele>1797</ele>
        <time>2017-08-12T13:17:09.59Z</time>
      </trkpt>
      <trkpt lat="46.32413" lon="6.77491">
        <ele>1773</ele>
        <time>2017-08-12T13:20:09.73Z</time>
      </trkpt>
      <trkpt lat="46.32375" lon="6.77516">
        <ele>1757.52</ele>
        <time>2017-08-12T13:21:08.15Z</time>
      </trkpt>
      <trkpt lat="46.32347" lon="6.77526">
        <ele>1747.02</ele>
        <time>2017-08-12T13:22:09.44Z</time>
      </trkpt>
      <trkpt lat="46.3232" lon="6.77549">
        <ele>1729.01</ele>
        <time>2017-08-12T13:23:09.43Z</time>
      </trkpt>
      <trkpt lat="46.32156" lon="6.77776">
        <ele>1665.27</ele>
        <time>2017-08-12T13:25:08.98Z</time>
      </trkpt>
      <trkpt lat="46.32131" lon="6.77828">
        <ele>1628.25</ele>
        <time>2017-08-12T13:26:08.94Z</time>
      </trkpt>
      <trkpt lat="46.32051" lon="6.77859">
        <ele>1599.4</ele>
        <time>2017-08-12T13:27:08.86Z</time>
      </trkpt>
      <trkpt lat="46.31867" lon="6.7811">
        <ele>1547.23</ele>
        <time>2017-08-12T13:30:09.23Z</time>
      </trkpt>
      <trkpt lat="46.31782" lon="6.78189">
        <ele>1512.01</ele>
        <time>2017-08-12T13:31:09.36Z</time>
      </trkpt>
      <trkpt lat="46.31727" lon="6.7831">
        <ele>1472.06</ele>
        <time>2017-08-12T13:33:09.31Z</time>
      </trkpt>
      <trkpt lat="46.31723" lon="6.78486">
        <ele>1449.9</ele>
        <time>2017-08-12T13:34:10.52Z</time>
      </trkpt>
      <trkpt lat="46.31714" lon="6.78547">
        <ele>1435</ele>
        <time>2017-08-12T13:35:09.45Z</time>
      </trkpt>
      <trkpt lat="46.31688" lon="6.78595">
        <ele>1403.6</ele>
        <time>2017-08-12T13:36:09.18Z</time>
      </trkpt>
      <trkpt lat="46.31527" lon="6.78663">
        <ele>1330.84</ele>
        <time>2017-08-12T13:37:50Z</time>
      </trkpt>
      <trkpt lat="46.31387" lon="6.78615">
        <ele>1293.84</ele>
        <time>2017-08-12T13:38:50Z</time>
      </trkpt>
      <trkpt lat="46.31317" lon="6.7861">
        <ele>1270</ele>
        <time>2017-08-12T13:39:40.10Z</time>
      </trkpt>
      <trkpt lat="46.31262" lon="6.78594">
        <ele>1257.01</ele>
        <time>2017-08-12T13:40:39.43Z</time>
      </trkpt>
      <trkpt lat="46.30985" lon="6.78578">
        <ele>1206</ele>
        <time>2017-08-12T13:42:40.03Z</time>
      </trkpt>
      <trkpt lat="46.30905" lon="6.78623">
        <ele>1191.12</ele>
        <time>2017-08-12T13:44:39.51Z</time>
      </trkpt>
      <trkpt lat="46.30797" lon="6.7876">
        <ele>1166.74</ele>
        <time>2017-08-12T13:45:42.59Z</time>
      </trkpt>
      <trkpt lat="46.30655" lon="6.78822">
        <ele>1152.98</ele>
        <time>2017-08-12T13:46:39.82Z</time>
      </trkpt>
      <trkpt lat="46.30423" lon="6.78912">
        <ele>1133.98</ele>
        <time>2017-08-12T13:48:39.85Z</time>
      </trkpt>
      <trkpt lat="46.30345" lon="6.7896">
        <ele>1119.71</ele>
        <time>2017-08-12T13:49:40.88Z</time>
      </trkpt>
      <trkpt lat="46.3031" lon="6.78952">
        <ele>1108.09</ele>
        <time>2017-08-12T13:50:39.01Z</time>
      </trkpt>
      <trkpt lat="46.30181" lon="6.78983">
        <ele>1093.75</ele>
        <time>2017-08-12T13:51:42.02Z</time>
      </trkpt>
      <trkpt lat="46.30001" lon="6.78996">
        <ele>1072.61</ele>
        <time>2017-08-12T13:52:42.24Z</time>
      </trkpt>
      <trkpt lat="46.29815" lon="6.7896">
        <ele>1050.15</ele>
        <time>2017-08-12T13:53:39.36Z</time>
      </trkpt>
      <trkpt lat="46.29686" lon="6.78912">
        <ele>1030.83</ele>
        <time>2017-08-12T13:54:40.26Z</time>
      </trkpt>
      <trkpt lat="46.29537" lon="6.78827">
        <ele>1012.29</ele>
        <time>2017-08-12T13:56:42.65Z</time>
      </trkpt>
      <trkpt lat="46.29511" lon="6.78959">
        <ele>1012</ele>
        <time>2017-08-12T14:15:58Z</time>
      </trkpt>
      <trkpt lat="46.2951" lon="6.78965">
        <ele>1012</ele>
        <time>2017-08-12T14:16:00Z</time>
      </trkpt>
      <trkpt lat="46.2951" lon="6.7897">
        <ele>1012</ele>
        <time>2017-08-12T14:16:02Z</time>
      </trkpt>
      <trkpt lat="46.2951" lon="6.78976">
        <ele>1012</ele>
        <time>2017-08-12T14:16:05Z</time>
      </trkpt>
      <trkpt lat="46.29508" lon="6.78982">
        <ele>1012</ele>
        <time>2017-08-12T14:16:08Z</time>
      </trkpt>
      <trkpt lat="46.29507" lon="6.78987">
        <ele>1012</ele>
        <time>2017-08-12T14:16:11Z</time>
      </trkpt>
      <trkpt lat="46.29505" lon="6.78992">
        <ele>1012</ele>
        <time>2017-08-12T14:16:14Z</time>
      </trkpt>
      <trkpt lat="46.29505" lon="6.78998">
        <ele>1012</ele>
        <time>2017-08-12T14:16:17Z</time>
      </trkpt>
      <trkpt lat="46.29504" lon="6.79005">
        <ele>1012</ele>
        <time>2017-08-12T14:16:20Z</time>
      </trkpt>
      <trkpt lat="46.29504" lon="6.79012">
        <ele>1012</ele>
        <time>2017-08-12T14:16:23Z</time>
      </trkpt>
      <trkpt lat="46.29503" lon="6.79018">
        <ele>1012</ele>
        <time>2017-08-12T14:16:26Z</time>
      </trkpt>
      <trkpt lat="46.29502" lon="6.79024">
        <ele>1012</ele>
        <time>2017-08-12T14:16:29Z</time>
      </trkpt>
      <trkpt lat="46.29502" lon="6.7903">
        <ele>1012</ele>
        <time>2017-08-12T14:16:32Z</time>
      </trkpt>
      <trkpt lat="46.29502" lon="6.79037">
        <ele>1012</ele>
        <time>2017-08-12T14:16:35Z</time>
      </trkpt>
      <trkpt lat="46.29502" lon="6.79044">
        <ele>1012</ele>
        <time>2017-08-12T14:16:38Z</time>
      </trkpt>
      <trkpt lat="46.29502" lon="6.79049">
        <ele>1012</ele>
        <time>2017-08-12T14:16:40Z</time>
      </trkpt>
      <trkpt lat="46.295" lon="6.79056">
        <ele>1012</ele>
        <time>2017-08-12T14:16:43Z</time>
      </trkpt>
      <trkpt lat="46.29498" lon="6.79061">
        <ele>1012</ele>
        <time>2017-08-12T14:16:46Z</time>
      </trkpt>
      <trkpt lat="46.29498" lon="6.79067">
        <ele>1012</ele>
        <time>2017-08-12T14:16:50Z</time>
      </trkpt>
      <trkpt lat="46.29496" lon="6.79074">
        <ele>1012</ele>
        <time>2017-08-12T14:16:53Z</time>
      </trkpt>
      <trkpt lat="46.29496" lon="6.7908">
        <ele>1012</ele>
        <time>2017-08-12T14:16:56Z</time>
      </trkpt>
      <trkpt lat="46.29495" lon="6.79085">
        <ele>1012</ele>
        <time>2017-08-12T14:16:59Z</time>
      </trkpt>
      <trkpt lat="46.29494" lon="6.7909">
        <ele>1012</ele>
        <time>2017-08-12T14:17:02Z</time>
      </trkpt>
      <trkpt lat="46.29493" lon="6.79096">
        <ele>1012</ele>
        <time>2017-08-12T14:17:05Z</time>
      </trkpt>
      <trkpt lat="46.29492" lon="6.79102">
        <ele>1012</ele>
        <time>2017-08-12T14:17:08Z</time>
      </trkpt>
      <trkpt lat="46.2949" lon="6.79107">
        <ele>1012</ele>
        <time>2017-08-12T14:17:11Z</time>
      </trkpt>
      <trkpt lat="46.29488" lon="6.79113">
        <ele>1012</ele>
        <time>2017-08-12T14:17:14Z</time>
      </trkpt>
      <trkpt lat="46.29486" lon="6.79118">
        <ele>1011.94</ele>
        <time>2017-08-12T14:17:17Z</time>
      </trkpt>
      <trkpt lat="46.29484" lon="6.79124">
        <ele>1011.64</ele>
        <time>2017-08-12T14:17:20Z</time>
      </trkpt>
      <trkpt lat="46.29481" lon="6.79128">
        <ele>1011.34</ele>
        <time>2017-08-12T14:17:23Z</time>
      </trkpt>
      <trkpt lat="46.29479" lon="6.79133">
        <ele>1011.06</ele>
        <time>2017-08-12T14:17:27Z</time>
      </trkpt>
      <trkpt lat="46.29478" lon="6.79138">
        <ele>1011.35</ele>
        <time>2017-08-12T14:17:30Z</time>
      </trkpt>
      <trkpt lat="46.29477" lon="6.79145">
        <ele>1011.65</ele>
        <time>2017-08-12T14:17:33Z</time>
      </trkpt>
      <trkpt lat="46.29475" lon="6.79151">
        <ele>1011.94</ele>
        <time>2017-08-12T14:17:36Z</time>
      </trkpt>
      <trkpt lat="46.29474" lon="6.79159">
        <ele>1012</ele>
        <time>2017-08-12T14:17:39Z</time>
      </trkpt>
      <trkpt lat="46.29472" lon="6.79165">
        <ele>1012</ele>
        <time>2017-08-12T14:17:42Z</time>
      </trkpt>
      <trkpt lat="46.2947" lon="6.79171">
        <ele>1012</ele>
        <time>2017-08-12T14:17:45Z</time>
      </trkpt>
      <trkpt lat="46.29469" lon="6.79176">
        <ele>1011.85</ele>
        <time>2017-08-12T14:17:48Z</time>
      </trkpt>
      <trkpt lat="46.29468" lon="6.79182">
        <ele>1011.55</ele>
        <time>2017-08-12T14:17:51Z</time>
      </trkpt>
      <trkpt lat="46.29466" lon="6.79187">
        <ele>1011.25</ele>
        <time>2017-08-12T14:17:54Z</time>
      </trkpt>
      <trkpt lat="46.29463" lon="6.79192">
        <ele>1011.06</ele>
        <time>2017-08-12T14:17:57Z</time>
      </trkpt>
      <trkpt lat="46.29461" lon="6.79199">
        <ele>1011.36</ele>
        <time>2017-08-12T14:18:00Z</time>
      </trkpt>
      <trkpt lat="46.29458" lon="6.79204">
        <ele>1011.65</ele>
        <time>2017-08-12T14:18:03Z</time>
      </trkpt>
      <trkpt lat="46.29456" lon="6.79208">
        <ele>1011.95</ele>
        <time>2017-08-12T14:18:06Z</time>
      </trkpt>
      <trkpt lat="46.29453" lon="6.79213">
        <ele>1012</ele>
        <time>2017-08-12T14:18:09Z</time>
      </trkpt>
      <trkpt lat="46.2945" lon="6.79218">
        <ele>1012</ele>
        <time>2017-08-12T14:18:12Z</time>
      </trkpt>
      <trkpt lat="46.29447" lon="6.79223">
        <ele>1012</ele>
        <time>2017-08-12T14:18:15Z</time>
      </trkpt>
      <trkpt lat="46.29445" lon="6.79229">
        <ele>1012</ele>
        <time>2017-08-12T14:18:18Z</time>
      </trkpt>
      <trkpt lat="46.29442" lon="6.79234">
        <ele>1012</ele>
        <time>2017-08-12T14:18:21Z</time>
      </trkpt>
      <trkpt lat="46.2944" lon="6.79239">
        <ele>1012</ele>
        <time>2017-08-12T14:18:24Z</time>
      </trkpt>
      <trkpt lat="46.29438" lon="6.79244">
        <ele>1011.94</ele>
        <time>2017-08-12T14:18:27Z</time>
      </trkpt>
      <trkpt lat="46.29435" lon="6.79249">
        <ele>1011.65</ele>
        <time>2017-08-12T14:18:30Z</time>
      </trkpt>
      <trkpt lat="46.29433" lon="6.79255">
        <ele>1011.35</ele>
        <time>2017-08-12T14:18:33Z</time>
      </trkpt>
      <trkpt lat="46.2943" lon="6.79261">
        <ele>1011.05</ele>
        <time>2017-08-12T14:18:36Z</time>
      </trkpt>
      <trkpt lat="46.29428" lon="6.79266">
        <ele>1011</ele>
        <time>2017-08-12T14:18:39Z</time>
      </trkpt>
      <trkpt lat="46.29425" lon="6.79271">
        <ele>1011</ele>
        <time>2017-08-12T14:18:42Z</time>
      </trkpt>
      <trkpt lat="46.29423" lon="6.79276">
        <ele>1011</ele>
        <time>2017-08-12T14:18:45Z</time>
      </trkpt>
      <trkpt lat="46.2942" lon="6.79281">
        <ele>1011</ele>
        <time>2017-08-12T14:18:48Z</time>
      </trkpt>
      <trkpt lat="46.29417" lon="6.79287">
        <ele>1011</ele>
        <time>2017-08-12T14:18:51Z</time>
      </trkpt>
      <trkpt lat="46.29385" lon="6.79335">
        <ele>1012</ele>
        <time>2017-08-12T14:19:38.96Z</time>
      </trkpt>
      <trkpt lat="46.29342" lon="6.79341">
        <ele>1006.47</ele>
        <time>2017-08-12T14:20:39.08Z</time>
      </trkpt>
      <trkpt lat="46.29262" lon="6.79312">
        <ele>998.72</ele>
        <time>2017-08-12T14:21:39.23Z</time>
      </trkpt>
      <trkpt lat="46.29169" lon="6.79302">
        <ele>994.67</ele>
        <time>2017-08-12T14:22:39.95Z</time>
      </trkpt>
      <trkpt lat="46.2915" lon="6.79351">
        <ele>993.26</ele>
        <time>2017-08-12T14:23:39.08Z</time>
      </trkpt>
      <trkpt lat="46.29095" lon="6.79475">
        <ele>994</ele>
        <time>2017-08-12T14:24:40.44Z</time>
      </trkpt>
      <trkpt lat="46.28938" lon="6.79759">
        <ele>996.27</ele>
        <time>2017-08-12T14:27:39.12Z</time>
      </trkpt>
      <trkpt lat="46.28795" lon="6.79888">
        <ele>999.75</ele>
        <time>2017-08-12T14:29:38.96Z</time>
      </trkpt>
      <trkpt lat="46.28872" lon="6.80005">
        <ele>1000.32</ele>
        <time>2017-08-12T14:30:39.69Z</time>
      </trkpt>
      <trkpt lat="46.28854" lon="6.80074">
        <ele>1001</ele>
        <time>2017-08-12T14:31:39.07Z</time>
      </trkpt>
      <trkpt lat="46.28852" lon="6.80231">
        <ele>1002</ele>
        <time>2017-08-12T14:32:40.51Z</time>
      </trkpt>
      <trkpt lat="46.28856" lon="6.80353">
        <ele>1004</ele>
        <time>2017-08-12T14:33:38.64Z</time>
      </trkpt>
      <trkpt lat="46.28835" lon="6.80428">
        <ele>1006.83</ele>
        <time>2017-08-12T14:34:38.28Z</time>
      </trkpt>
      <trkpt lat="46.28813" lon="6.80475">
        <ele>1006.32</ele>
        <time>2017-08-12T14:35:39.66Z</time>
      </trkpt>
      <trkpt lat="46.28785" lon="6.80585">
        <ele>1009</ele>
        <time>2017-08-12T14:36:38.45Z</time>
      </trkpt>
      <trkpt lat="46.28735" lon="6.80686">
        <ele>1011</ele>
        <time>2017-08-12T14:37:39.89Z</time>
      </trkpt>
      <trkpt lat="46.28694" lon="6.8072">
        <ele>1010.81</ele>
        <time>2017-08-12T14:38:38.33Z</time>
      </trkpt>
      <trkpt lat="46.2862" lon="6.80779">
        <ele>1011</ele>
        <time>2017-08-12T14:39:39.71Z</time>
      </trkpt>
      <trkpt lat="46.28588" lon="6.80813">
        <ele>1013</ele>
        <time>2017-08-12T14:40:38.95Z</time>
      </trkpt>
      <trkpt lat="46.28421" lon="6.81068">
        <ele>1016</ele>
        <time>2017-08-12T14:42:39.65Z</time>
      </trkpt>
      <trkpt lat="46.28365" lon="6.81194">
        <ele>1017</ele>
        <time>2017-08-12T14:44:38.43Z</time>
      </trkpt>
      <trkpt lat="46.28316" lon="6.81299">
        <ele>1018</ele>
        <time>2017-08-12T14:45:39.29Z</time>
      </trkpt>
      <trkpt lat="46.28218" lon="6.81374">
        <ele>1019</ele>
        <time>2017-08-12T14:46:41.17Z</time>
      </trkpt>
      <trkpt lat="46.28187" lon="6.81437">
        <ele>1021</ele>
        <time>2017-08-12T14:47:38.70Z</time>
      </trkpt>
      <trkpt lat="46.28146" lon="6.81522">
        <ele>1022.17</ele>
        <time>2017-08-12T14:48:38.28Z</time>
      </trkpt>
      <trkpt lat="46.28101" lon="6.81588">
        <ele>1023</ele>
        <time>2017-08-12T14:49:38.86Z</time>
      </trkpt>
      <trkpt lat="46.28027" lon="6.81694">
        <ele>1024</ele>
        <time>2017-08-12T14:50:39.55Z</time>
      </trkpt>
      <trkpt lat="46.27966" lon="6.81887">
        <ele>1026</ele>
        <time>2017-08-12T14:52:39.19Z</time>
      </trkpt>
      <trkpt lat="46.2793" lon="6.81944">
        <ele>1027</ele>
        <time>2017-08-12T14:53:39.01Z</time>
      </trkpt>
      <trkpt lat="46.27798" lon="6.82117">
        <ele>1030</ele>
        <time>2017-08-12T14:55:40.96Z</time>
      </trkpt>
      <trkpt lat="46.27769" lon="6.82177">
        <ele>1031</ele>
        <time>2017-08-12T14:57:38.77Z</time>
      </trkpt>
      <trkpt lat="46.27752" lon="6.82227">
        <ele>1032</ele>
        <time>2017-08-12T14:58:38.45Z</time>
      </trkpt>
      <trkpt lat="46.27691" lon="6.82298">
        <ele>1032.33</ele>
        <time>2017-08-12T14:59:39.73Z</time>
      </trkpt>
      <trkpt lat="46.27643" lon="6.82365">
        <ele>1034</ele>
        <time>2017-08-12T15:00:38.66Z</time>
      </trkpt>
      <trkpt lat="46.27598" lon="6.82398">
        <ele>1035</ele>
        <time>2017-08-12T15:01:38.49Z</time>
      </trkpt>
      <trkpt lat="46.27575" lon="6.82485">
        <ele>1037.3</ele>
        <time>2017-08-12T15:02:39.40Z</time>
      </trkpt>
    </trkseg>
  </trk>
</gpx>